PAQT

Details ICAO PAQT (NUI)
Name NUIQSUT
Region USA (Alaska)
Timezone America/Anchorage (UTC-9.0)
Plans Departing 5
Arriving 3
Stats Elevation 38 ft / 12 m (AMSL)
Location 70.209945° -151.005554°
Runways 1
Magnetic Variation 16.995° E
Sunrise Unknown / Unknown
Sunset Unknown / Unknown
Advertisement - Login to hide

Runways

ID Width Length Bearing (true) Bearing (mag) Surface Threshold Offset Overrun Length
04 89 ft / 27 m 4,347 ft / 1,325 m 69.69° 52.69° Gravel 0 ft / 0 m 0 ft / 0 m
22 89 ft / 27 m 4,347 ft / 1,325 m 249.72° 232.72° Gravel 0 ft / 0 m 0 ft / 0 m

Map

Weather


0- 5 10 15 20 25 30 35+ Temperature / ° C

Clouds and Precipitation
Forecast for 2017-12-12 00:00 UTC. Updated an hour ago

Ground ~20,000 ft ~40,000 ft Winds

METAR

PAQT 112353Z AUTO 05019KT 1/2SM SN FZFG OVC016 M14/M16 A2972 RMK PK WND 05031/2311 SNE02B20 SLP066 P0000 60000 T11441156 11144 21150 53009 TSNO VIA AUTODIAL

TAF

TAF PAQT 112334Z 1200/1224 05024G35KT 1/2SM -SN FZFG BLSN BKN007 OVC012 FM121500 06022G32KT 1 1/2SM -SN BR SCT007 BKN015 OVC025 FM122100 06018KT 2SM -SN BR SCT007 BKN015 OVC025

Frequencies

Recorded 122.50 MHz ASOS
Approach 119.40 MHz ANCHORAGE CNTR
Unicom 122.80 MHz CTAF
Warning: Do not use this data for real-world aviation or navigation. No guarantee of current accuracy is given.